Flora, Louisiana
Current Conditions -  °F | °C
As of 9:15 PM on Saturday 22 Nov 2014 (Local Time) from KIER Reporting Station
Heavy Rain Heavy Rain  
Wind Chill: 63°   Ceiling: 1700
Heat Index: 63°   Visibility: 2.5mi
Dew Point: 61°   Wind: 8mph
Humidity: 96%   Direction: 130°SE
Pressure: 29.87"   Gusts: NA
Location:  31.61°N, 93.1°W
Report Text: KIER 230315Z AUTO 13007KT 2 1/2SM +RA BKN017 OVC027 17/16 A2987 RMK AO2 LTG DSNT NW T01700163
Loading
Personal Weather Stations






























Interactive Weather Map New forecast layout! Learn more

10-Day Weather Forecast

Advertisements
Track Severe Weather on mobile